Time;durP1;ratioP1;P1;durP2;ratioP2;P2;SDS_P1;SDS_P2;PMS_P1;PMS_P2;Temp;Humidity;BMP_temperature;BMP_pressure;BME280_temperature;BME280_humidity;BME280_pressure;Samples;Min_cycle;Max_cycle;Signal;HPM_P1;HPM_P2
2022/07/02 00:00:50;;;;;;;3.33;2.40;;;23.50;99.90;;;;;;5075790;28;20168;-88
2022/07/02 00:03:23;;;;;;;3.05;2.30;;;23.50;99.90;;;;;;5075965;28;20175;-88
2022/07/02 00:05:57;;;;;;;4.00;2.83;;;23.40;99.90;;;;;;5075974;28;20190;-88
2022/07/02 00:08:25;;;;;;;3.40;2.55;;;23.40;99.90;;;;;;5076517;28;20170;-88
2022/07/02 00:10:51;;;;;;;3.28;2.30;;;23.40;99.90;;;;;;5076724;28;20167;-88
2022/07/02 00:13:19;;;;;;;3.38;2.65;;;23.30;99.90;;;;;;5075916;28;20186;-88
2022/07/02 00:15:45;;;;;;;4.30;2.53;;;23.30;99.90;;;;;;5074684;28;20179;-87
2022/07/02 00:18:11;;;;;;;4.85;2.60;;;23.30;99.90;;;;;;5074401;28;20276;-88
2022/07/02 00:20:38;;;;;;;3.63;2.53;;;23.40;99.90;;;;;;5075743;28;20171;-88
2022/07/02 00:23:04;;;;;;;3.88;2.17;;;;;;;;;;5075393;28;20688;-88
2022/07/02 00:25:56;;;;;;;4.45;2.72;;;23.50;99.90;;;;;;5076143;28;20203;-89
2022/07/02 00:28:25;;;;;;;2.90;2.60;;;23.50;99.90;;;;;;5076186;28;20183;-89
2022/07/02 00:30:51;;;;;;;4.20;2.80;;;23.60;99.90;;;;;;5074201;28;20180;-88
2022/07/02 00:33:17;;;;;;;3.28;2.30;;;23.60;99.90;;;;;;5075092;28;20210;-88
2022/07/02 00:35:45;;;;;;;2.97;2.20;;;23.70;99.90;;;;;;5074241;28;20175;-88
2022/07/02 00:38:11;;;;;;;2.95;2.22;;;23.70;99.90;;;;;;5074252;28;20225;-88
2022/07/02 00:40:38;;;;;;;6.55;2.45;;;23.70;99.90;;;;;;5074623;28;20171;-88
2022/07/02 00:43:04;;;;;;;3.40;2.70;;;23.80;99.90;;;;;;5074885;28;20636;-88
2022/07/02 00:45:33;;;;;;;4.57;2.53;;;23.70;99.90;;;;;;5074658;28;20214;-88
2022/07/02 00:48:00;;;;;;;2.67;2.10;;;23.70;99.90;;;;;;5075286;28;20210;-88
2022/07/02 00:50:26;;;;;;;3.78;2.45;;;23.70;99.90;;;;;;5075448;28;20225;-88
2022/07/02 00:52:51;;;;;;;3.28;2.42;;;23.70;99.90;;;;;;5075026;28;20175;-88
2022/07/02 00:55:17;;;;;;;3.58;2.70;;;23.70;99.90;;;;;;5074878;28;20179;-88
2022/07/02 00:57:46;;;;;;;3.00;2.30;;;23.70;99.90;;;;;;5074828;28;20540;-88
2022/07/02 01:00:14;;;;;;;4.13;2.75;;;23.60;99.90;;;;;;5073630;28;20185;-88
2022/07/02 01:02:46;;;;;;;4.05;2.97;;;23.60;99.90;;;;;;5073464;28;20543;-88
2022/07/02 01:05:17;;;;;;;3.47;2.75;;;23.50;99.90;;;;;;5083937;28;20266;-88
2022/07/02 01:07:46;;;;;;;4.90;2.90;;;23.50;99.90;;;;;;5099565;28;20172;-88
2022/07/02 01:10:17;;;;;;;4.07;2.88;;;23.50;99.90;;;;;;5099257;28;20163;-88
2022/07/02 01:12:45;;;;;;;3.30;2.45;;;23.40;99.90;;;;;;5098907;28;20160;-87
2022/07/02 01:15:11;;;;;;;4.40;2.70;;;23.30;99.90;;;;;;5099086;28;20188;-88
2022/07/02 01:17:36;;;;;;;4.25;2.38;;;23.30;99.90;;;;;;5099122;28;20160;-88
2022/07/02 01:20:05;;;;;;;3.33;2.65;;;23.30;99.90;;;;;;5099047;28;20162;-88
2022/07/02 01:22:38;;;;;;;4.07;2.55;;;23.30;99.90;;;;;;5098781;28;20164;-88
2022/07/02 01:25:06;;;;;;;3.03;2.72;;;23.20;99.90;;;;;;5098065;28;20202;-88
2022/07/02 01:27:32;;;;;;;3.90;2.58;;;23.20;99.90;;;;;;5099397;28;20198;-87
2022/07/02 01:29:57;;;;;;;4.03;2.72;;;23.20;99.90;;;;;;5098099;28;20178;-87
2022/07/02 01:32:23;;;;;;;4.90;2.67;;;23.30;99.90;;;;;;5098865;28;20167;-88
2022/07/02 01:34:52;;;;;;;5.10;2.88;;;23.20;99.90;;;;;;5098194;28;20231;-88
2022/07/02 01:37:21;;;;;;;4.72;2.85;;;23.20;99.90;;;;;;5098619;28;20170;-88
2022/07/02 01:39:48;;;;;;;3.80;2.70;;;23.30;99.90;;;;;;5081880;28;20175;-88
2022/07/02 01:42:14;;;;;;;3.25;2.42;;;23.20;99.90;;;;;;5073803;28;20172;-87
2022/07/02 01:44:41;;;;;;;4.65;3.33;;;23.30;99.90;;;;;;5072475;28;20207;-88
2022/07/02 01:47:09;;;;;;;3.90;2.70;;;23.30;99.90;;;;;;5073047;28;20180;-87
2022/07/02 01:49:36;;;;;;;3.65;2.75;;;23.30;99.90;;;;;;5073777;28;20171;-87
2022/07/02 01:52:03;;;;;;;4.07;2.70;;;23.30;99.90;;;;;;5073969;28;20175;-87
2022/07/02 01:54:29;;;;;;;4.57;3.00;;;23.30;99.90;;;;;;5074009;28;20206;-87
2022/07/02 01:56:56;;;;;;;3.33;2.80;;;23.30;99.90;;;;;;5073903;28;20214;-87
2022/07/02 01:59:21;;;;;;;6.13;3.40;;;23.30;99.90;;;;;;5073645;28;20283;-87
2022/07/02 02:01:48;;;;;;;3.30;2.63;;;23.30;99.90;;;;;;5072385;28;20648;-88
2022/07/02 02:04:13;;;;;;;5.40;2.90;;;23.30;99.90;;;;;;5072449;28;20206;-88
2022/07/02 02:06:40;;;;;;;7.18;3.10;;;23.30;99.90;;;;;;5073788;28;20186;-88
2022/07/02 02:09:06;;;;;;;6.90;3.33;;;23.30;99.90;;;;;;5073693;28;20183;-88
2022/07/02 02:11:32;;;;;;;6.82;3.00;;;23.20;99.90;;;;;;5073922;28;20170;-87
2022/07/02 02:13:58;;;;;;;5.32;2.97;;;23.20;99.90;;;;;;5073549;28;20182;-88
2022/07/02 02:16:28;;;;;;;3.83;2.60;;;23.30;99.90;;;;;;5073645;28;20183;-88
2022/07/02 02:18:56;;;;;;;3.92;2.63;;;23.30;99.90;;;;;;5073967;28;20166;-87
2022/07/02 02:21:24;;;;;;;4.93;2.83;;;23.30;99.90;;;;;;5072539;28;20179;-87
2022/07/02 02:23:50;;;;;;;3.85;3.08;;;23.30;99.90;;;;;;5074907;28;20235;-87
2022/07/02 02:26:15;;;;;;;5.10;3.03;;;23.30;99.90;;;;;;5075689;28;20274;-89
2022/07/02 02:28:41;;;;;;;3.92;2.83;;;23.30;99.90;;;;;;5074448;28;20175;-87
2022/07/02 02:31:07;;;;;;;3.83;3.08;;;23.30;99.90;;;;;;5071958;28;20256;-88
2022/07/02 02:33:32;;;;;;;4.15;3.05;;;23.30;99.90;;;;;;5072400;28;20179;-88
2022/07/02 02:35:58;;;;;;;4.72;3.15;;;23.30;99.90;;;;;;5072518;28;20333;-88
2022/07/02 02:38:25;;;;;;;4.90;3.20;;;23.30;99.90;;;;;;5072270;28;20620;-88
2022/07/02 02:40:50;;;;;;;4.10;3.28;;;23.30;99.90;;;;;;5074424;28;20171;-89
2022/07/02 02:43:16;;;;;;;3.80;3.08;;;23.30;99.90;;;;;;5072465;28;20270;-90
2022/07/02 02:45:41;;;;;;;3.50;2.92;;;23.30;99.90;;;;;;5073222;28;20264;-89
2022/07/02 02:48:07;;;;;;;4.32;3.45;;;23.30;99.90;;;;;;5073087;28;20179;-89
2022/07/02 02:50:33;;;;;;;5.07;3.63;;;23.30;99.90;;;;;;5073922;28;20182;-89
2022/07/02 02:52:58;;;;;;;8.68;3.53;;;23.30;99.90;;;;;;5071759;28;20608;-88
2022/07/02 02:55:24;;;;;;;4.93;4.00;;;23.30;99.90;;;;;;5074108;28;20538;-88
2022/07/02 02:57:49;;;;;;;5.93;4.15;;;23.30;99.90;;;;;;5077767;28;20184;-88
2022/07/02 03:00:15;;;;;;;4.53;3.45;;;23.30;99.90;;;;;;5065340;28;20183;-88
2022/07/02 03:02:41;;;;;;;5.32;4.13;;;23.40;99.90;;;;;;5077218;28;20223;-88
2022/07/02 03:05:06;;;;;;;6.22;4.15;;;23.30;99.90;;;;;;5076315;28;20206;-87
2022/07/02 03:07:33;;;;;;;6.68;4.75;;;23.30;99.90;;;;;;5058974;28;20187;-88
2022/07/02 03:09:59;;;;;;;5.68;4.40;;;23.30;99.90;;;;;;5060377;28;20260;-88
2022/07/02 03:12:24;;;;;;;5.65;4.03;;;23.20;99.90;;;;;;5075980;28;20193;-88
2022/07/02 03:14:50;;;;;;;6.45;4.18;;;23.10;99.90;;;;;;5077467;28;20187;-89
2022/07/02 03:17:15;;;;;;;4.57;3.92;;;23.10;99.90;;;;;;5075083;28;20183;-89
2022/07/02 03:19:41;;;;;;;6.80;3.67;;;23.00;99.90;;;;;;5076822;28;20631;-88
2022/07/02 03:22:07;;;;;;;4.50;3.65;;;23.10;99.90;;;;;;5076666;28;20179;-88
2022/07/02 03:24:33;;;;;;;4.78;3.50;;;23.10;99.90;;;;;;5058441;28;20694;-89
2022/07/02 03:26:59;;;;;;;4.43;3.50;;;23.10;99.90;;;;;;5075350;28;20715;-88
2022/07/02 03:29:25;;;;;;;5.00;3.05;;;23.10;99.90;;;;;;5055160;28;20207;-89
2022/07/02 03:31:50;;;;;;;5.25;3.20;;;23.10;99.90;;;;;;5075588;28;20179;-88
2022/07/02 03:34:16;;;;;;;3.92;2.75;;;23.10;99.90;;;;;;5077442;28;20194;-88
2022/07/02 03:36:41;;;;;;;4.68;2.65;;;23.10;99.90;;;;;;5076372;28;20579;-87
2022/07/02 03:39:07;;;;;;;4.25;2.92;;;23.10;99.90;;;;;;5077092;28;20186;-87
2022/07/02 03:41:32;;;;;;;2.83;2.40;;;23.10;99.90;;;;;;5075438;28;20195;-87
2022/07/02 03:43:58;;;;;;;3.97;2.47;;;23.10;99.90;;;;;;5074766;28;20287;-87
2022/07/02 03:46:24;;;;;;;3.83;2.50;;;23.10;99.90;;;;;;5074564;28;20693;-88
2022/07/02 03:48:49;;;;;;;3.90;1.98;;;23.00;99.90;;;;;;5074870;28;20225;-88
2022/07/02 03:51:15;;;;;;;3.25;2.22;;;23.00;99.90;;;;;;5075561;28;20636;-89
2022/07/02 03:53:41;;;;;;;3.35;2.67;;;22.90;99.90;;;;;;5074802;28;20624;-89
2022/07/02 03:56:07;;;;;;;2.90;2.17;;;22.90;99.90;;;;;;5074579;28;20245;-88
2022/07/02 03:58:32;;;;;;;2.40;2.03;;;22.80;99.90;;;;;;5057997;28;20193;-90
2022/07/02 04:00:58;;;;;;;2.85;2.17;;;22.60;99.90;;;;;;5075544;28;20255;-90
2022/07/02 04:03:24;;;;;;;3.65;2.40;;;22.60;99.90;;;;;;5075223;28;20629;-89
2022/07/02 04:05:49;;;;;;;3.95;2.60;;;22.50;99.90;;;;;;5074179;28;20211;-88
2022/07/02 04:08:15;;;;;;;3.63;2.58;;;22.50;99.90;;;;;;5074978;28;20285;-90
2022/07/02 04:10:41;;;;;;;2.78;2.25;;;22.50;99.90;;;;;;5098887;28;20199;-88
2022/07/02 04:13:08;;;;;;;4.13;2.85;;;22.60;99.90;;;;;;5082464;28;20187;-88
2022/07/02 04:15:34;;;;;;;2.90;2.33;;;22.70;99.90;;;;;;5076453;28;20175;-88
2022/07/02 04:18:00;;;;;;;2.78;2.30;;;22.70;99.90;;;;;;5087702;28;20176;-89
2022/07/02 04:20:26;;;;;;;2.65;2.15;;;22.70;99.90;;;;;;5068889;28;20186;-89
2022/07/02 04:22:51;;;;;;;11.23;3.17;;;22.70;99.90;;;;;;5077256;28;20215;-88
2022/07/02 04:25:17;;;;;;;2.90;1.95;;;22.70;99.90;;;;;;5073684;28;20337;-89
2022/07/02 04:27:43;;;;;;;2.45;2.17;;;22.70;99.90;;;;;;5074057;28;20188;-88
2022/07/02 04:30:09;;;;;;;2.60;2.20;;;22.70;99.90;;;;;;5075692;28;20191;-89
2022/07/02 04:32:35;;;;;;;4.13;2.10;;;22.70;99.90;;;;;;5051750;28;20191;-88
2022/07/02 04:35:00;;;;;;;2.58;2.00;;;22.80;99.90;;;;;;5070037;28;20195;-88
2022/07/02 04:37:26;;;;;;;2.20;2.00;;;22.90;99.90;;;;;;5073673;28;20183;-89
2022/07/02 04:39:52;;;;;;;2.42;1.92;;;22.90;99.90;;;;;;5073976;28;20703;-88
2022/07/02 04:42:21;;;;;;;3.83;2.15;;;23.10;99.90;;;;;;5057861;28;20187;-88
2022/07/02 04:44:49;;;;;;;2.42;1.52;;;23.20;99.90;;;;;;5073468;28;20253;-88
2022/07/02 04:47:14;;;;;;;3.33;2.25;;;23.40;99.90;;;;;;5079015;28;20179;-88
2022/07/02 04:49:40;;;;;;;2.20;2.00;;;23.50;99.90;;;;;;5073234;28;20183;-89
2022/07/02 04:52:06;;;;;;;2.78;2.00;;;;;;;;;;5074242;28;20270;-89
2022/07/02 04:54:32;;;;;;;3.47;2.75;;;23.80;99.90;;;;;;5073204;28;20191;-89
2022/07/02 04:56:57;;;;;;;2.60;2.22;;;23.90;99.90;;;;;;5073072;28;20345;-88
2022/07/02 04:59:23;;;;;;;4.90;1.95;;;24.00;99.90;;;;;;5073049;28;20206;-89
2022/07/02 05:01:49;;;;;;;2.08;1.80;;;24.00;99.90;;;;;;5073591;28;20213;-88
2022/07/02 05:04:15;;;;;;;2.58;2.30;;;24.00;99.90;;;;;;5073196;28;20211;-91
2022/07/02 05:06:40;;;;;;;5.82;2.15;;;23.90;99.90;;;;;;5073605;28;20270;-90
2022/07/02 05:09:06;;;;;;;3.22;2.13;;;24.00;99.90;;;;;;5073482;28;20240;-89
2022/07/02 05:11:31;;;;;;;2.85;2.40;;;24.00;99.90;;;;;;5054922;28;20199;-91
2022/07/02 05:13:57;;;;;;;2.85;2.28;;;24.00;99.90;;;;;;5074337;28;20201;-88
2022/07/02 05:16:23;;;;;;;2.40;1.85;;;24.00;99.90;;;;;;5073801;28;20211;-89
2022/07/02 05:18:48;;;;;;;2.60;2.15;;;24.10;99.90;;;;;;5066075;28;20623;-90
2022/07/02 05:21:14;;;;;;;3.78;2.42;;;24.20;99.90;;;;;;5063042;28;20191;-90
2022/07/02 05:23:40;;;;;;;3.13;2.40;;;24.40;99.90;;;;;;5056501;28;20261;-91
2022/07/02 05:26:05;;;;;;;3.75;2.40;;;24.50;99.90;;;;;;5065998;28;20214;-89
2022/07/02 05:28:31;;;;;;;2.95;2.35;;;24.70;99.90;;;;;;5067682;28;20180;-88
2022/07/02 05:30:59;;;;;;;6.30;2.70;;;24.80;99.90;;;;;;5063226;28;20183;-89
2022/07/02 05:33:26;;;;;;;3.30;2.50;;;24.90;99.90;;;;;;5059410;28;20806;-90
2022/07/02 05:35:51;;;;;;;3.20;2.45;;;24.80;99.90;;;;;;5065796;28;20211;-89
2022/07/02 05:38:18;;;;;;;4.68;2.25;;;24.70;99.90;;;;;;5067066;28;20776;-89
2022/07/02 05:41:40;;;;;;;;;;;;;;;;;;;;;
2022/07/02 05:46:55;;;;;;;2.58;2.20;;;25.00;99.90;;;;;;5020120;28;20244;-93
2022/07/02 05:49:52;;;;;;;2.33;2.10;;;24.80;99.90;;;;;;4981402;28;20186;-93
2022/07/02 05:52:21;;;;;;;2.90;2.15;;;24.60;99.90;;;;;;5338675;23;20216;-93
2022/07/02 05:55:08;;;;;;;3.35;2.50;;;24.40;99.90;;;;;;5043785;28;20233;-91
2022/07/02 05:57:39;;;;;;;5.18;2.90;;;24.00;99.90;;;;;;5048997;28;20265;-93
2022/07/02 06:00:06;;;;;;;4.10;3.08;;;23.60;99.90;;;;;;5030220;28;20222;-91
2022/07/02 06:02:32;;;;;;;4.80;3.17;;;;;;;;;;5042848;28;20283;-93
2022/07/02 06:04:58;;;;;;;4.20;3.13;;;;;;;;;;5046494;28;20220;-90
2022/07/02 06:07:40;;;;;;;5.88;3.70;;;;;;;;;;5047632;28;20275;-91
2022/07/02 06:10:10;;;;;;;6.03;3.40;;;22.70;99.90;;;;;;5044692;28;20279;-89
2022/07/02 06:12:36;;;;;;;5.68;3.83;;;;;;;;;;5045624;28;20183;-91
2022/07/02 06:15:03;;;;;;;6.38;4.13;;;22.60;99.90;;;;;;5046929;28;20195;-90
2022/07/02 06:17:29;;;;;;;6.38;4.65;;;;;;;;;;5046107;28;20195;-91
2022/07/02 06:19:55;;;;;;;6.15;3.83;;;;;;;;;;5044869;28;20247;-92
2022/07/02 06:22:22;;;;;;;7.35;4.68;;;;;;;;;;5049889;28;20207;-93
2022/07/02 06:24:48;;;;;;;6.55;4.32;;;;;;;;;;5049164;28;20220;-91
2022/07/02 06:27:14;;;;;;;5.38;4.07;;;;;;;;;;5049930;28;20188;-89
2022/07/02 06:29:41;;;;;;;5.35;3.97;;;;;;;;;;5049091;28;20183;-90
2022/07/02 06:32:07;;;;;;;5.10;4.03;;;22.30;99.90;;;;;;5049299;28;20188;-90
2022/07/02 06:34:33;;;;;;;8.10;3.72;;;21.00;99.90;;;;;;5049803;28;20412;-90
2022/07/02 06:37:02;;;;;;;6.10;4.07;;;22.40;99.90;;;;;;5047344;28;20199;-89
2022/07/02 06:39:37;;;;;;;4.57;3.60;;;;;;;;;;5048992;28;20649;-89
2022/07/02 06:44:58;;;;;;;6.25;3.50;;;22.60;99.90;;;;;;5046001;28;20222;-89
2022/07/02 06:47:24;;;;;;;5.43;3.58;;;;;;;;;;5045222;28;20253;-89
2022/07/02 06:49:50;;;;;;;6.07;3.90;;;22.70;99.90;;;;;;5048017;28;20179;-88
2022/07/02 06:52:19;;;;;;;5.13;3.60;;;23.00;99.90;;;;;;5044786;28;20181;-88
2022/07/02 06:54:46;;;;;;;4.55;3.40;;;;;;;;;;5048484;28;20202;-89
2022/07/02 06:57:14;;;;;;;4.75;3.60;;;;;;;;;;5039649;28;20667;-89
2022/07/02 06:59:40;;;;;;;5.93;4.47;;;;;;;;;;5045628;28;20644;-88
2022/07/02 07:02:07;;;;;;;5.78;4.63;;;;;;;;;;5049776;28;20226;-88
2022/07/02 07:04:34;;;;;;;4.72;3.97;;;23.10;99.90;;;;;;5045065;28;20231;-88
2022/07/02 07:07:02;;;;;;;5.47;3.95;;;;;;;;;;5041396;28;20784;-87
2022/07/02 07:09:41;;;;;;;4.88;3.67;;;23.30;99.90;;;;;;5040759;28;20188;-90
2022/07/02 07:12:10;;;;;;;4.82;3.90;;;23.40;99.90;;;;;;5042471;28;20263;-91
2022/07/02 07:14:38;;;;;;;6.82;4.22;;;23.40;99.90;;;;;;5043721;28;20176;-90
2022/07/02 07:17:04;;;;;;;6.93;3.85;;;;;;;;;;5045148;28;20207;-90
2022/07/02 07:19:30;;;;;;;6.32;3.90;;;;;;;;;;5043041;28;20238;-88
2022/07/02 07:21:56;;;;;;;4.45;3.53;;;;;;;;;;5029165;28;20187;-89
2022/07/02 07:24:22;;;;;;;4.75;3.63;;;;;;;;;;5043351;28;20624;-89
2022/07/02 07:26:51;;;;;;;6.25;4.55;;;24.10;99.90;;;;;;5049129;28;20198;-88
2022/07/02 07:29:17;;;;;;;5.35;3.65;;;;;;;;;;5049397;28;20184;-89
2022/07/02 07:31:43;;;;;;;6.93;4.70;;;;;;;;;;5035969;28;20201;-86
2022/07/02 07:34:12;;;;;;;6.18;4.22;;;24.00;99.90;;;;;;5046788;28;20187;-88
2022/07/02 07:36:50;;;;;;;;;;;;;;;;;;;;;
2022/07/02 07:39:17;;;;;;;7.57;5.50;;;;;;;;;;5058919;28;20240;-87
2022/07/02 07:41:45;;;;;;;8.35;5.55;;;;;;;;;;5064318;28;20172;-87
2022/07/02 07:44:11;;;;;;;10.15;7.05;;;23.70;99.90;;;;;;5070282;28;20172;-88
2022/07/02 07:46:37;;;;;;;10.88;7.43;;;;;;;;;;5071215;28;20180;-86
2022/07/02 07:49:05;;;;;;;10.07;6.90;;;;;;;;;;5072308;28;20177;-88
2022/07/02 07:51:31;;;;;;;9.13;5.90;;;;;;;;;;5070569;28;20172;-86
2022/07/02 07:54:00;;;;;;;7.85;6.07;;;23.40;99.90;;;;;;5072737;28;20282;-86
2022/07/02 07:56:26;;;;;;;7.75;5.68;;;;;;;;;;5055438;28;20169;-86
2022/07/02 07:58:52;;;;;;;8.23;5.75;;;;;;;;;;5077344;28;20209;-87
2022/07/02 08:01:18;;;;;;;6.65;5.13;;;;;;;;;;5070476;28;20192;-86
2022/07/02 08:03:44;;;;;;;9.07;5.78;;;;;;;;;;5056580;28;20195;-85
2022/07/02 08:06:10;;;;;;;8.30;5.45;;;23.40;99.90;;;;;;5057571;28;20204;-85
2022/07/02 08:08:40;;;;;;;11.75;7.03;;;22.80;99.90;;;;;;5034354;28;20311;-88
2022/07/02 08:11:07;;;;;;;8.85;6.65;;;;;;;;;;5077276;28;20180;-90
2022/07/02 08:13:33;;;;;;;9.52;6.60;;;;;;;;;;5066693;28;20934;-85
2022/07/02 08:16:05;;;;;;;10.23;7.22;;;;;;;;;;5051461;28;20190;-84
2022/07/02 08:18:32;;;;;;;9.65;7.22;;;23.10;99.90;;;;;;5046644;28;20188;-86
2022/07/02 08:20:59;;;;;;;11.88;8.07;;;;;;;;;;5062131;28;20214;-87
2022/07/02 08:23:25;;;;;;;9.02;6.60;;;;;;;;;;5055486;28;20184;-88
2022/07/02 08:25:53;;;;;;;13.85;8.43;;;;;;;;;;5035805;28;20212;-87
2022/07/02 08:28:19;;;;;;;12.80;8.02;;;;;;;;;;5055679;28;20207;-86
2022/07/02 08:30:48;;;;;;;11.32;7.10;;;23.60;99.90;;;;;;5053665;28;20229;-88
2022/07/02 08:33:21;;;;;;;10.50;6.82;;;;;;;;;;5058135;28;20243;-87
2022/07/02 08:35:47;;;;;;;11.07;7.25;;;23.60;99.90;;;;;;5075107;28;20199;-88
2022/07/02 08:38:23;;;;;;;12.77;7.10;;;23.60;99.90;;;;;;5068605;28;20179;-90
2022/07/02 08:41:04;;;;;;;14.57;9.15;;;23.60;99.90;;;;;;5074688;28;20200;-89
2022/07/02 08:43:34;;;;;;;13.48;9.73;;;23.40;99.90;;;;;;5070522;28;20180;-89
2022/07/02 08:46:04;;;;;;;24.48;14.23;;;23.30;99.90;;;;;;5066925;28;20221;-91
2022/07/02 08:48:33;;;;;;;18.30;12.68;;;23.00;99.90;;;;;;5067757;28;20168;-90
2022/07/02 08:50:59;;;;;;;14.50;9.80;;;;;;;;;;5039866;28;20196;-87
2022/07/02 08:53:24;;;;;;;13.20;9.75;;;22.80;99.90;;;;;;5053361;28;20227;-89
2022/07/02 08:55:53;;;;;;;12.02;8.38;;;22.60;99.90;;;;;;5040844;28;20181;-88
2022/07/02 08:58:20;;;;;;;13.88;8.95;;;;;;;;;;5030227;28;20196;-88
2022/07/02 09:00:48;;;;;;;13.38;8.48;;;22.60;99.90;;;;;;5044515;28;20250;-87
2022/07/02 09:03:14;;;;;;;12.50;8.85;;;;;;;;;;5044354;28;20187;-86
2022/07/02 09:05:47;;;;;;;10.65;7.65;;;22.60;99.90;;;;;;5045985;28;20211;-87
2022/07/02 09:08:13;;;;;;;12.13;7.80;;;;;;;;;;5030193;28;20548;-87
2022/07/02 09:10:42;;;;;;;11.65;7.72;;;22.70;99.90;;;;;;5045181;28;20184;-89
2022/07/02 09:13:11;;;;;;;7.60;5.30;;;22.40;99.90;;;;;;5050805;28;20196;-89
2022/07/02 09:15:37;;;;;;;11.30;7.05;;;;;;;;;;5044485;28;20652;-89
2022/07/02 09:18:04;;;;;;;12.00;7.55;;;;;;;;;;5050445;28;20645;-91
2022/07/02 09:20:32;;;;;;;14.27;7.93;;;22.20;99.90;;;;;;5048108;28;20187;-88
2022/07/02 09:22:58;;;;;;;10.50;6.88;;;;;;;;;;5037783;28;20185;-89
2022/07/02 09:25:27;;;;;;;11.38;7.65;;;22.10;99.90;;;;;;5044311;28;20216;-90
2022/07/02 09:28:03;;;;;;;10.73;7.82;;;22.10;99.90;;;;;;5042048;28;20181;-90
2022/07/02 09:30:36;;;;;;;14.35;7.93;;;21.90;99.90;;;;;;5049998;28;20628;-90
2022/07/02 09:35:48;;;;;;;13.02;8.18;;;;;;;;;;5057162;28;20202;-90
2022/07/02 09:38:16;;;;;;;13.30;8.05;;;;;;;;;;5051657;28;20175;-92
2022/07/02 09:40:56;;;;;;;16.45;7.78;;;21.80;99.90;;;;;;5047924;28;20179;-89
2022/07/02 09:43:30;;;;;;;12.40;7.63;;;21.70;99.90;;;;;;5073771;28;20164;-88
2022/07/02 09:45:57;;;;;;;13.15;8.70;;;21.80;99.90;;;;;;5058221;28;20223;-88
2022/07/02 09:48:23;;;;;;;9.43;6.72;;;;;;;;;;5042373;28;20234;-90
2022/07/02 09:50:50;;;;;;;9.45;6.55;;;;;;;;;;5038660;28;20208;-87
2022/07/02 09:53:15;;;;;;;9.40;6.22;;;21.90;99.90;;;;;;5025294;28;20243;-87
2022/07/02 09:55:47;;;;;;;10.63;6.45;;;21.80;99.90;;;;;;5041359;28;20200;-84
2022/07/02 09:58:15;;;;;;;11.43;7.20;;;21.80;99.90;;;;;;5042894;28;20220;-87
2022/07/02 10:00:47;;;;;;;11.05;7.47;;;21.80;99.90;;;;;;5042690;28;20180;-87
2022/07/02 10:03:12;;;;;;;13.80;7.70;;;21.50;99.90;;;;;;5042217;28;20661;-87
2022/07/02 10:05:39;;;;;;;16.00;8.30;;;21.80;99.90;;;;;;5042244;28;20226;-86
2022/07/02 10:08:05;;;;;;;16.77;9.23;;;21.70;99.90;;;;;;5024690;28;20243;-86
2022/07/02 10:10:38;;;;;;;15.43;9.18;;;21.70;99.90;;;;;;5024386;28;20192;-87
2022/07/02 10:13:09;;;;;;;17.02;9.48;;;21.60;99.90;;;;;;5042694;28;20180;-85
2022/07/02 10:15:39;;;;;;;16.35;9.43;;;21.50;99.90;;;;;;5041975;28;20191;-87
2022/07/02 10:18:05;;;;;;;10.20;6.57;;;21.50;99.90;;;;;;5041282;28;20203;-88
2022/07/02 10:20:33;;;;;;;12.32;7.47;;;21.50;99.90;;;;;;5045691;28;20185;-87
2022/07/02 10:23:02;;;;;;;12.63;6.53;;;21.50;99.90;;;;;;5048694;28;20192;-87
2022/07/02 10:25:32;;;;;;;9.55;5.85;;;;;;;;;;5044059;28;20230;-88
2022/07/02 10:27:59;;;;;;;13.38;6.82;;;;;;;;;;5046742;28;20183;-87
2022/07/02 10:30:34;;;;;;;10.05;6.22;;;;;;;;;;5043842;28;20192;-88
2022/07/02 10:33:37;;;;;;;10.00;5.85;;;21.50;99.90;;;;;;5053628;28;20234;-88
2022/07/02 10:36:10;;;;;;;8.77;5.78;;;21.50;99.90;;;;;;5046743;28;20187;-88
2022/07/02 10:38:39;;;;;;;8.73;5.38;;;21.60;99.90;;;;;;5047429;28;20171;-87
2022/07/02 10:41:06;;;;;;;6.72;4.15;;;21.80;99.90;;;;;;5043782;28;20186;-87
2022/07/02 10:43:34;;;;;;;8.70;6.55;;;21.90;99.90;;;;;;5021534;28;20218;-88
2022/07/02 10:46:02;;;;;;;12.75;8.13;;;21.80;99.90;;;;;;5049065;28;20684;-86
2022/07/02 10:48:29;;;;;;;13.40;8.70;;;;;;;;;;5048380;28;20352;-88
2022/07/02 10:50:58;;;;;;;13.25;8.20;;;21.50;99.90;;;;;;5049211;28;20192;-87
2022/07/02 10:53:28;;;;;;;13.70;8.48;;;21.50;99.90;;;;;;5041166;28;20255;-89
2022/07/02 10:55:54;;;;;;;11.82;7.93;;;;;;;;;;5047866;28;20207;-90
2022/07/02 10:58:27;;;;;;;11.18;7.55;;;21.60;99.90;;;;;;5046746;28;20184;-87
2022/07/02 11:00:55;;;;;;;9.00;6.10;;;;;;;;;;5045934;28;20187;-86
2022/07/02 11:03:32;;;;;;;10.48;6.40;;;21.90;99.90;;;;;;5039918;28;20257;-86
2022/07/02 11:06:06;;;;;;;7.18;5.47;;;22.20;99.90;;;;;;5042899;28;20687;-88
2022/07/02 11:09:19;;;;;;;10.43;5.78;;;22.40;99.90;;;;;;5049629;28;20235;-87
2022/07/02 11:11:53;;;;;;;7.30;5.55;;;22.60;99.90;;;;;;5047517;28;20522;-85
2022/07/02 11:14:19;;;;;;;10.82;6.95;;;;;;;;;;5041990;28;20242;-87
2022/07/02 11:16:52;;;;;;;6.72;4.50;;;22.60;99.90;;;;;;5047676;28;20699;-87
2022/07/02 11:19:22;;;;;;;7.65;5.57;;;22.60;99.90;;;;;;5049677;28;20187;-89
2022/07/02 11:21:50;;;;;;;8.45;5.38;;;22.40;99.90;;;;;;5042786;28;20184;-88
2022/07/02 11:24:26;;;;;;;7.18;4.90;;;22.30;99.90;;;;;;5053826;28;20274;-91
2022/07/02 11:26:55;;;;;;;8.63;5.72;;;22.20;99.90;;;;;;5038423;28;20532;-86
2022/07/02 11:29:21;;;;;;;10.02;6.80;;;;;;;;;;5051595;28;20271;-86
2022/07/02 11:31:49;;;;;;;8.80;5.78;;;22.20;99.90;;;;;;5047049;28;20559;-88
2022/07/02 11:34:18;;;;;;;11.10;6.53;;;22.20;99.90;;;;;;5055182;28;20180;-87
2022/07/02 11:36:45;;;;;;;10.88;6.43;;;;;;;;;;5054674;28;20180;-87
2022/07/02 11:39:15;;;;;;;8.73;5.80;;;22.30;99.90;;;;;;5040687;28;20547;-90
2022/07/02 11:41:42;;;;;;;8.23;5.57;;;;;;;;;;5040593;28;20180;-87
2022/07/02 11:44:24;;;;;;;6.20;4.47;;;22.20;99.90;;;;;;5038089;28;20188;-86
2022/07/02 11:46:57;;;;;;;9.10;5.70;;;22.30;99.90;;;;;;5053445;28;20184;-86
2022/07/02 11:49:25;;;;;;;7.05;5.00;;;22.30;99.90;;;;;;5053165;28;20183;-88
2022/07/02 11:51:52;;;;;;;8.23;5.82;;;22.30;99.90;;;;;;5044653;28;20253;-86
2022/07/02 11:54:19;;;;;;;11.80;6.53;;;;;;;;;;5055031;28;20230;-87
2022/07/02 11:56:46;;;;;;;13.00;7.50;;;22.40;99.90;;;;;;5050125;28;20667;-88
2022/07/02 11:59:14;;;;;;;8.13;5.70;;;22.20;99.90;;;;;;5030042;28;20249;-86
2022/07/02 12:01:41;;;;;;;8.25;4.63;;;22.20;99.90;;;;;;5052515;28;20298;-89
2022/07/02 12:04:11;;;;;;;5.13;3.92;;;22.30;99.90;;;;;;5049312;28;20251;-82
2022/07/02 12:06:40;;;;;;;6.15;4.25;;;22.40;99.90;;;;;;5058424;28;20345;-82
2022/07/02 12:09:08;;;;;;;5.85;4.15;;;22.40;99.90;;;;;;5064649;28;20195;-86
2022/07/02 12:11:35;;;;;;;5.28;3.92;;;22.40;99.90;;;;;;5064033;28;20186;-82
2022/07/02 12:14:02;;;;;;;6.07;4.05;;;;;;;;;;5062372;28;20188;-85
2022/07/02 12:16:29;;;;;;;5.22;3.90;;;22.30;99.90;;;;;;5048274;28;20188;-84
2022/07/02 12:19:09;;;;;;;6.57;4.13;;;22.30;99.90;;;;;;5051513;28;20295;-84
2022/07/02 12:21:37;;;;;;;4.93;4.13;;;22.20;99.90;;;;;;5044672;28;20540;-84
2022/07/02 12:24:06;;;;;;;5.93;4.43;;;22.20;99.90;;;;;;5045581;28;20185;-85
2022/07/02 12:26:32;;;;;;;5.28;4.07;;;22.20;99.90;;;;;;5048399;28;20321;-83
2022/07/02 12:31:53;;;;;;;4.28;2.95;;;22.30;99.90;;;;;;5054761;28;20194;-83
2022/07/02 12:34:20;;;;;;;6.20;3.60;;;22.40;99.90;;;;;;5056254;28;20263;-82
2022/07/02 12:36:46;;;;;;;6.85;4.15;;;22.50;99.90;;;;;;5057002;28;20589;-83
2022/07/02 12:39:11;;;;;;;4.82;3.35;;;22.40;99.90;;;;;;5054776;28;20172;-83
2022/07/02 12:41:40;;;;;;;5.63;3.95;;;22.30;99.90;;;;;;5053463;28;20179;-83
2022/07/02 12:44:14;;;;;;;8.70;4.30;;;22.40;99.90;;;;;;5045006;28;20228;-83
2022/07/02 12:46:58;;;;;;;5.30;3.60;;;22.40;99.90;;;;;;5055092;28;20196;-83
2022/07/02 12:49:25;;;;;;;4.25;3.67;;;22.30;99.90;;;;;;5037253;28;20195;-83
2022/07/02 12:51:59;;;;;;;7.50;4.25;;;22.20;99.90;;;;;;5054995;28;20176;-83
2022/07/02 12:54:38;;;;;;;6.35;4.22;;;22.20;99.90;;;;;;5055390;28;20257;-84
2022/07/02 12:57:15;;;;;;;8.15;5.25;;;22.20;99.90;;;;;;5055189;28;20267;-83
2022/07/02 12:59:42;;;;;;;8.38;5.43;;;22.10;99.90;;;;;;5052043;28;20198;-83
2022/07/02 13:02:09;;;;;;;10.35;6.55;;;;;;;;;;5027857;28;20326;-85
2022/07/02 13:04:35;;;;;;;8.65;6.60;;;22.00;99.90;;;;;;5049778;28;20207;-83
2022/07/02 13:07:00;;;;;;;11.35;7.05;;;21.90;99.90;;;;;;5053012;28;20523;-83
2022/07/02 13:09:27;;;;;;;10.05;6.40;;;21.70;99.90;;;;;;5034016;28;20662;-83
2022/07/02 13:11:53;;;;;;;17.02;8.00;;;21.50;99.90;;;;;;5040423;28;20184;-84
2022/07/02 13:14:18;;;;;;;12.80;7.75;;;21.40;99.90;;;;;;5040717;28;20180;-83
2022/07/02 13:16:44;;;;;;;12.00;7.70;;;21.30;99.90;;;;;;5033554;28;20169;-83
2022/07/02 13:19:09;;;;;;;11.95;7.68;;;21.10;99.90;;;;;;5033495;28;20252;-84
2022/07/02 13:21:35;;;;;;;12.23;7.90;;;21.10;99.90;;;;;;5022116;28;20212;-83
2022/07/02 13:24:01;;;;;;;12.65;6.65;;;21.10;99.90;;;;;;5033525;28;20187;-82